Používaním stránok prevádzkovaných PROFIPILOT, s.r.o. súhlasíte s používaním cookies, ktoré nám pomáhajú zabezpečiť lepšie služby.OK

Briefing

MAPA | METAR | TAF | METEO SITUÁCIA
MAPA | METAR | TAF | METEO SITUÁCIA

Predpoveď na dnes

Malá, miestami zväčšená oblačnosť, postupne na západe pribúdanie oblačnosti. Ojedinele prehánky alebo búrky, aj intenzívne. Najvyššia denná teplota 27 až 32, na Orave, v podtatranskej oblasti a Hornom Zemplíne okolo 25 st. Teplota na horách vo výške 1500 m okolo 16 st. Bezvetrie alebo slabý, na juhozápade prevažne juhovýchodný vietor do 5 m/s (20 km/h). Pri búrkach vietor prechodne zosilnie. Predpokladané množstvo zrážok: do 3 mm, pri búrkach ojedinele 15 až 30 mm

SHMÚ, OMPaV, PV 21.7.2018 11:55 LSEČ

MAPA | METAR | TAF | METEO SITUÁCIA

TAF - Letisková predpoveď

21.07.2018 - 11:00 UTC

TAF LZIB 211100Z 2112/2212 08006KT 9999 SCT042
     TEMPO 2112/2119 30015KT 6000 SHRA BKN033 SCT043CB
     TEMPO 2119/2208 31015G25KT 2000 TSRA BKN030CB BKN040=
 TAF LZKZ 211100Z 2112/2212 25005KT 9999 SCT040
     PROB40 TEMPO 2200/2206 VRB02KT 3000 BCFG SCT004
     TEMPO 2202/2208 03012KT SHRA SCT040TCU BKN070=
 TAF LZTT 211100Z 2112/2212 23008KT 9999 FEW035
     PROB30 TEMPO 2112/2115 -SHRA SCT025CB BKN050
     TEMPO 2200/2206 VRB02KT 2000 BCFG SCT003
     PROB30 TEMPO 2202/2205 0500 FG BKN001
     BECMG 2209/2211 19008KT 5000 SHRA SCT030CB BKN040=
 

21.07.2018 - 11:00 UTC

TAF LZSL 211100Z 2112/2121 22004KT 9999 SCT040
     PROB40 TEMPO 2112/2115 16012KT=
 TAF LZPP 211100Z 2112/2121 02007KT CAVOK
     TEMPO 2112/2118 18012KT 9999 -SHRA FEW040CB BKN050=
 TAF LZZI 211100Z 2112/2121 07004KT 9999 SCT040=
 

21.07.2018 - 08:00 UTC

TAF LZSL 210800Z 2109/2118 12005KT 9999 SCT040
     TEMPO 2111/2115 16012KT=
 TAF LZPP 210800Z 2109/2118 02007KT CAVOK
     BECMG 2109/2111 18012KT 9999 SCT040=
 TAF LZZI 210800Z 2109/2118 07005KT 9999 SCT040=
 

21.07.2018 - 05:00 UTC

TAF LZIB 210500Z 2106/2206 03003KT CAVOK
     BECMG 2108/2110 17006KT SCT040
     BECMG 2111/2113 BKN040
     TEMPO 2118/2200 30015KT 6000 SHRA BKN033 SCT043CB
     TEMPO 2119/2123 31015G25KT 2000 TSRA BKN030CB BKN040=
 TAF LZKZ 210500Z 2106/2206 03004KT CAVOK
     BECMG 2108/2110 17006KT 9999 SCT040
     TEMPO 2112/2117 03012KT SHRA SCT040TCU BKN070
     PROB30 TEMPO 2200/2206 VRB02KT 3000 BCFG SCT004=
 TAF LZTT 210500Z 2106/2206 26004KT 9999 FEW035
     BECMG 2106/2108 07006KT SCT040
     PROB30 TEMPO 2109/2115 -SHRA SCT025CB BKN050
     TEMPO 2200/2206 VRB02KT 2000 BCFG SCT003
     PROB30 TEMPO 2202/2205 0500 FG BKN001=
 

21.07.2018 - 05:00 UTC

TAF LZSL 210500Z 2106/2115 VRB02KT 2000 BR SCT003
     BECMG 2106/2108 12005KT 9999 SCT040
     BECMG 2111/2113 16012KT=
 TAF LZPP 210500Z 2106/2115 02007KT CAVOK
     BECMG 2109/2111 18012KT=
 TAF LZZI 210500Z 2106/2115 VRB02KT 6000 BKN003
     BECMG 2106/2108 9999 SCT040=
 

21.07.2018 - 02:00 UTC

TAF LZSL 210200Z 2103/2112 VRB02KT CAVOK
     TEMPO 2103/2105 4000 MIFG SCT002
     PROB30 2103/2105 0600 FG BKN001=
 TAF LZZI 210200Z 2103/2112 VRB02KT CAVOK
     TEMPO 2103/2106 4000 MIFG SCT003
     PROB30 2103/2105 0600 FG BKN001=
 
MAPA | METAR | TAF | METEO SITUÁCIA

METAR - Letisková meteo správa

Letisková meteorologická správa METAR

Meteorologické informácie z ďalších profesionálnych meteorologických staníc SHMÚ zobrazené v tvare zodpovedajúcom pravidlám kódovania správ METAR sú uvedené v položke „METSYN Informácie o správe METAR

21.07.2018 - 11:30 UTC

METAR LZIB 211130Z 15010KT 100V200 CAVOK 29/15 Q1011 NOSIG=
 METAR LZKZ 211130Z 16005KT 120V220 CAVOK 27/16 Q1013 NOSIG=
 METAR LZPP 211130Z 10005KT 040V180 CAVOK 30/14 Q1012=
 METAR LZSL 211130Z 21005KT 130V290 9999 SCT050 30/09 Q1012=
 METAR LZTT 211130Z 27006KT 220V310 9999 FEW056 24/11 Q1014 NOSIG=
 METAR LZZI 211130Z VRB04KT 9999 SCT054 28/09 Q1012=
 

21.07.2018 - 11:00 UTC

METAR LZIB 211100Z 15007KT 060V190 CAVOK 29/16 Q1011 NOSIG=
 METAR LZKZ 211100Z 13003KT 040V190 9999 FEW049 26/15 Q1013 NOSIG=
 METAR LZPP 211100Z 16005KT 100V260 CAVOK 29/14 Q1012=
 METAR LZSL 211100Z 20005KT 160V250 9999 FEW050 29/09 Q1013=
 METAR LZTT 211100Z 26009KT 220V290 9999 FEW043 25/12 Q1014 NOSIG=
 METAR LZZI 211100Z VRB02KT 9999 FEW051 27/11 Q1013=
 

21.07.2018 - 11:00 UTC

METAR LZMC 211100Z 14008KT CAVOK 29/11 Q1013=
 METAR LZPW 211100Z VRB02KT CAVOK 28/11 Q1013=
 
načítavam...